Time;durP1;ratioP1;P1;durP2;ratioP2;P2;SDS_P1;SDS_P2;PMS_P1;PMS_P2;Temp;Humidity;BMP_temperature;BMP_pressure;BME280_temperature;BME280_humidity;BME280_pressure;Samples;Min_cycle;Max_cycle;Signal;HPM_P1;HPM_P2
2022/07/27 00:01:46;;;;;;;1.70;1.60;;;;;;;19.22;100.00;98621.34;4400194;32;20564;-74
2022/07/27 00:04:12;;;;;;;3.42;2.08;;;;;;;19.30;100.00;98654.44;4400579;32;20457;-73
2022/07/27 00:06:38;;;;;;;4.07;1.85;;;;;;;19.02;100.00;98613.75;4401205;32;20030;-73
2022/07/27 00:09:05;;;;;;;1.83;1.70;;;;;;;19.18;100.00;98647.66;4398608;32;20426;-77
2022/07/27 00:11:31;;;;;;;4.68;2.00;;;;;;;18.67;100.00;98576.19;4400900;32;20047;-73
2022/07/27 00:13:58;;;;;;;3.85;1.58;;;;;;;18.87;100.00;98607.59;4400733;32;20051;-73
2022/07/27 00:16:24;;;;;;;3.78;2.10;;;;;;;19.00;100.00;98624.16;4400876;32;20392;-73
2022/07/27 00:18:50;;;;;;;5.07;1.90;;;;;;;19.33;100.00;98670.19;4396478;32;20042;-76
2022/07/27 00:21:17;;;;;;;5.45;1.77;;;;;;;19.24;100.00;98651.87;4400446;32;20074;-73
2022/07/27 00:23:43;;;;;;;5.32;2.08;;;;;;;19.28;100.00;98652.03;4400479;32;20116;-73
2022/07/27 00:26:10;;;;;;;3.58;1.92;;;;;;;19.04;100.00;98625.16;4425542;32;20041;-73
2022/07/27 00:28:36;;;;;;;3.22;1.90;;;;;;;19.25;100.00;98658.13;4433443;32;20034;-73
2022/07/27 00:31:02;;;;;;;2.53;1.80;;;;;;;19.13;100.00;98661.47;4431336;32;20034;-76
2022/07/27 00:33:29;;;;;;;3.75;1.70;;;;;;;18.92;100.00;98603.91;4433433;32;20041;-73
2022/07/27 00:35:55;;;;;;;2.70;2.12;;;;;;;19.03;100.00;98645.34;4433135;32;20030;-74
2022/07/27 00:38:21;;;;;;;3.10;1.90;;;;;;;18.92;100.00;98669.38;4430617;32;20436;-73
2022/07/27 00:40:48;;;;;;;4.15;1.85;;;;;;;18.91;100.00;98672.41;4383840;32;20076;-76
2022/07/27 00:43:14;;;;;;;3.03;2.08;;;;;;;18.55;100.00;98635.16;4383964;32;20031;-74
2022/07/27 00:45:41;;;;;;;4.82;1.83;;;;;;;18.35;100.00;98604.59;4383962;32;20031;-73
2022/07/27 00:48:07;;;;;;;3.65;2.05;;;;;;;18.45;100.00;98637.03;4355290;32;20044;-74
2022/07/27 00:50:34;;;;;;;3.28;1.92;;;;;;;18.33;100.00;98644.94;4355012;32;20053;-73
2022/07/27 00:53:03;;;;;;;2.10;1.73;;;;;;;18.70;100.00;98676.47;4352144;32;20028;-73
2022/07/27 00:55:32;;;;;;;3.08;2.50;;;;;;;18.66;100.00;98680.91;4355065;32;20044;-74
2022/07/27 00:57:59;;;;;;;5.80;2.12;;;;;;;18.56;100.00;98664.03;4348582;32;20054;-73
2022/07/27 01:00:28;;;;;;;2.40;2.20;;;;;;;18.55;100.00;98697.84;4346465;32;20054;-75
2022/07/27 01:02:55;;;;;;;5.22;1.98;;;;;;;18.26;100.00;98691.72;4352202;32;20780;-74
2022/07/27 01:05:21;;;;;;;6.62;2.10;;;;;;;18.08;100.00;98666.25;4355284;32;20050;-73
2022/07/27 01:07:50;;;;;;;2.10;1.80;;;;;;;18.17;100.00;98679.12;4355030;32;20109;-72
2022/07/27 01:10:17;;;;;;;4.50;2.15;;;;;;;18.25;100.00;98686.56;4345373;32;20105;-73
2022/07/27 01:12:44;;;;;;;3.58;1.90;;;;;;;18.28;100.00;98686.75;4383349;32;20060;-73
2022/07/27 01:15:11;;;;;;;4.75;1.90;;;;;;;18.14;100.00;98666.94;4392541;32;20035;-73
2022/07/27 01:17:38;;;;;;;2.67;2.05;;;;;;;17.83;100.00;98642.31;4392247;32;20441;-73
2022/07/27 01:20:05;;;;;;;4.93;2.65;;;;;;;17.94;100.00;98657.31;4421313;32;20064;-73
2022/07/27 01:22:31;;;;;;;1.90;1.80;;;;;;;17.88;100.00;98675.69;4429118;32;20060;-74
2022/07/27 01:24:58;;;;;;;4.40;2.20;;;;;;;17.96;100.00;98698.66;4432519;32;20798;-74
2022/07/27 01:27:24;;;;;;;5.47;1.83;;;;;;;17.92;100.00;98673.19;4430354;32;20033;-73
2022/07/27 01:29:50;;;;;;;5.25;2.47;;;;;;;18.06;100.00;98701.19;4431302;32;20056;-73
2022/07/27 01:32:17;;;;;;;2.17;2.08;;;;;;;17.97;100.00;98697.56;4429472;32;20441;-74
2022/07/27 01:34:43;;;;;;;8.02;1.95;;;;;;;17.97;100.00;98692.13;4432074;32;20026;-74
2022/07/27 01:37:10;;;;;;;10.43;2.17;;;;;;;18.01;100.00;98698.56;4432324;32;20042;-74
2022/07/27 01:39:36;;;;;;;4.97;1.87;;;;;;;17.93;100.00;98702.84;4432440;32;20103;-74
2022/07/27 01:42:04;;;;;;;3.65;2.00;;;;;;;17.98;100.00;98707.34;4432357;32;20034;-74
2022/07/27 01:44:31;;;;;;;5.37;2.17;;;;;;;17.69;100.00;98664.91;4431731;32;20033;-75
2022/07/27 01:46:57;;;;;;;9.75;2.72;;;;;;;17.83;100.00;98713.91;4382398;32;20484;-74
2022/07/27 01:49:23;;;;;;;7.32;1.95;;;;;;;17.53;100.00;98671.78;4384833;32;21060;-74
2022/07/27 01:51:50;;;;;;;4.55;2.35;;;;;;;17.64;100.00;98694.16;4384307;32;20095;-74
2022/07/27 01:54:17;;;;;;;2.87;2.03;;;;;;;17.59;100.00;98703.25;4384412;32;20143;-73
2022/07/27 01:56:43;;;;;;;3.30;1.60;;;;;;;17.64;100.00;98700.41;4383150;32;20030;-73
2022/07/27 01:59:10;;;;;;;5.65;1.95;;;;;;;17.33;100.00;98673.84;4382030;32;20057;-74
2022/07/27 02:01:36;;;;;;;6.87;2.10;;;;;;;17.72;100.00;98712.50;4384007;32;20077;-73
2022/07/27 02:04:03;;;;;;;6.55;1.92;;;;;;;17.70;100.00;98696.47;4354502;32;20031;-74
2022/07/27 02:06:29;;;;;;;5.60;1.92;;;;;;;17.72;100.00;98707.84;4323539;33;20490;-73
2022/07/27 02:08:55;;;;;;;4.22;2.33;;;;;;;17.68;100.00;98706.88;4323279;33;20032;-73
2022/07/27 02:14:07;;;;;;;4.53;2.05;;;;;;;17.69;100.00;98708.47;4317647;33;20115;-72
2022/07/27 02:16:34;;;;;;;7.55;1.40;;;;;;;17.67;100.00;98693.56;4315162;33;20041;-73
2022/07/27 02:19:06;;;;;;;3.85;1.83;;;;;;;17.59;100.00;98676.03;4321826;33;20046;-73
2022/07/27 02:21:32;;;;;;;10.32;2.80;;;;;;;17.75;100.00;98680.03;4323681;33;20860;-73
2022/07/27 02:23:59;;;;;;;5.43;1.60;;;;;;;17.84;100.00;98692.91;4302608;33;20024;-73
2022/07/27 02:26:26;;;;;;;4.97;1.80;;;;;;;17.61;100.00;98673.78;4286130;33;20022;-73
2022/07/27 02:28:53;;;;;;;2.78;2.00;;;;;;;17.63;100.00;98682.50;4287335;33;20098;-74
2022/07/27 02:31:19;;;;;;;3.83;2.20;;;;;;;17.79;100.00;98702.81;4288891;33;20122;-76
2022/07/27 02:33:45;;;;;;;3.22;1.70;;;;;;;17.69;100.00;98708.47;4290309;33;20051;-73
2022/07/27 02:36:12;;;;;;;5.15;1.95;;;;;;;17.65;100.00;98712.94;4288785;33;20072;-73
2022/07/27 02:38:38;;;;;;;4.40;1.73;;;;;;;17.45;100.00;98686.12;4290200;33;20063;-74
2022/07/27 02:41:05;;;;;;;1.95;1.50;;;;;;;17.52;100.00;98683.78;4290448;33;20055;-73
2022/07/27 02:43:31;;;;;;;3.87;1.73;;;;;;;17.75;100.00;98718.16;4317268;33;20064;-75
2022/07/27 02:45:57;;;;;;;4.00;1.58;;;;;;;17.65;100.00;98707.47;4299916;33;20029;-74
2022/07/27 02:48:24;;;;;;;3.08;1.70;;;;;;;17.57;100.00;98719.09;4306671;33;20021;-73
2022/07/27 02:50:50;;;;;;;5.85;1.60;;;;;;;17.04;100.00;98628.69;4304975;33;20044;-73
2022/07/27 02:53:17;;;;;;;2.17;1.40;;;;;;;17.67;100.00;98721.59;4316446;33;20109;-73
2022/07/27 02:55:43;;;;;;;7.72;1.67;;;;;;;17.42;100.00;98699.25;4299913;33;20034;-75
2022/07/27 02:58:09;;;;;;;3.60;1.50;;;;;;;17.33;100.00;98695.59;4309779;33;20086;-73
2022/07/27 03:00:36;;;;;;;3.83;1.90;;;;;;;17.38;100.00;98697.41;4312939;33;20078;-73
2022/07/27 03:03:02;;;;;;;3.42;1.80;;;;;;;17.41;100.00;98697.63;4335172;33;20046;-73
2022/07/27 03:05:29;;;;;;;5.03;1.37;;;;;;;17.59;100.00;98747.59;4316286;33;20066;-73
2022/07/27 03:07:55;;;;;;;4.93;1.62;;;;;;;17.39;100.00;98708.00;4331245;33;20032;-73
2022/07/27 03:10:21;;;;;;;5.78;1.70;;;;;;;17.59;100.00;98746.81;4333048;33;20394;-72
2022/07/27 03:12:48;;;;;;;2.17;1.50;;;;;;;17.47;100.00;98711.09;4319512;33;20057;-74
2022/07/27 03:15:14;;;;;;;5.40;2.53;;;;;;;17.38;100.00;98719.19;4320060;33;20054;-71
2022/07/27 03:17:41;;;;;;;3.22;1.90;;;;;;;17.35;100.00;98723.31;4323891;33;20029;-72
2022/07/27 03:20:08;;;;;;;3.85;2.75;;;;;;;17.61;100.00;98766.34;4324590;33;20512;-75
2022/07/27 03:22:35;;;;;;;3.30;3.00;;;;;;;17.43;100.00;98749.81;4327085;33;20047;-74
2022/07/27 03:25:01;;;;;;;4.20;2.28;;;;;;;16.94;100.00;98677.84;4327140;33;20029;-74
2022/07/27 03:27:28;;;;;;;7.35;3.58;;;;;;;17.54;100.00;98776.84;4327052;33;20197;-74
2022/07/27 03:29:55;;;;;;;3.53;3.22;;;;;;;17.57;100.00;98778.97;4333496;33;20095;-74
2022/07/27 03:32:21;;;;;;;5.05;3.25;;;;;;;17.30;100.00;98753.34;4317401;33;20118;-76
2022/07/27 03:34:47;;;;;;;1.75;1.65;;;;;;;17.13;100.00;98734.06;4319065;33;20091;-74
2022/07/27 03:37:15;;;;;;;5.95;1.77;;;;;;;17.27;100.00;98751.22;4348382;32;20032;-74
2022/07/27 03:39:42;;;;;;;5.87;1.70;;;;;;;17.48;100.00;98783.50;4355087;32;20029;-74
2022/07/27 03:42:08;;;;;;;2.00;1.55;;;;;;;17.36;100.00;98776.63;4355077;32;20085;-76
2022/07/27 03:44:34;;;;;;;1.58;1.35;;;;;;;17.15;100.00;98759.06;4375399;32;20057;-75
2022/07/27 03:47:01;;;;;;;5.60;1.95;;;;;;;17.35;100.00;98780.44;4379590;32;20035;-74
2022/07/27 03:49:27;;;;;;;1.52;1.30;;;;;;;17.36;100.00;98795.69;4380432;32;20101;-74
2022/07/27 03:51:54;;;;;;;2.10;1.87;;;;;;;17.08;100.00;98758.66;4378480;32;20034;-73
2022/07/27 03:54:20;;;;;;;1.95;1.65;;;;;;;17.11;100.00;98758.84;4377245;32;20023;-74
2022/07/27 03:56:46;;;;;;;6.10;1.60;;;;;;;16.79;100.00;98718.88;4378126;32;20535;-74
2022/07/27 03:59:13;;;;;;;1.62;1.30;;;;;;;17.03;100.00;98771.22;4370047;32;20439;-74
2022/07/27 04:01:39;;;;;;;4.85;1.30;;;;;;;16.99;100.00;98772.13;4370390;32;20020;-74
2022/07/27 04:04:06;;;;;;;1.35;1.25;;;;;;;16.88;100.00;98771.47;4391116;32;20065;-74
2022/07/27 04:06:32;;;;;;;1.52;1.15;;;;;;;16.99;100.00;98767.50;4400761;32;20043;-74
2022/07/27 04:08:58;;;;;;;4.62;1.50;;;;;;;16.97;100.00;98766.19;4399682;32;20467;-74
2022/07/27 04:11:25;;;;;;;2.05;1.10;;;;;;;16.83;100.00;98745.19;4401094;32;20165;-74
2022/07/27 04:13:51;;;;;;;4.62;1.37;;;;;;;17.09;100.00;98776.56;4399358;32;20101;-74
2022/07/27 04:16:17;;;;;;;3.05;1.42;;;;;;;17.14;100.00;98790.09;4400625;32;20053;-74
2022/07/27 04:18:44;;;;;;;9.43;1.65;;;;;;;17.05;100.00;98766.28;4399098;32;20478;-72
2022/07/27 04:21:12;;;;;;;11.30;1.45;;;;;;;16.99;100.00;98762.06;4400635;32;20986;-72
2022/07/27 04:23:38;;;;;;;5.47;1.40;;;;;;;16.66;100.00;98721.25;4370124;32;20040;-73
2022/07/27 04:26:05;;;;;;;4.45;1.30;;;;;;;16.91;100.00;98745.63;4353782;32;20358;-73
2022/07/27 04:28:31;;;;;;;3.67;1.27;;;;;;;17.11;100.00;98775.19;4351039;32;20092;-73
2022/07/27 04:30:58;;;;;;;7.68;1.77;;;;;;;17.35;100.00;98775.00;4366604;32;20036;-73
2022/07/27 04:33:25;;;;;;;2.50;1.48;;;;;;;17.14;100.00;98741.13;4340556;33;20039;-73
2022/07/27 04:35:51;;;;;;;4.87;1.55;;;;;;;17.22;100.00;98732.28;4340701;33;20126;-73
2022/07/27 04:38:17;;;;;;;1.98;1.08;;;;;;;17.35;100.00;98723.31;4338858;33;20445;-74
2022/07/27 04:40:44;;;;;;;2.10;1.15;;;;;;;17.18;100.00;98731.25;4338566;33;20044;-76
2022/07/27 04:43:10;;;;;;;2.08;1.52;;;;;;;17.42;100.00;98769.16;4340324;33;20044;-73
2022/07/27 04:45:36;;;;;;;2.45;1.20;;;;;;;17.42;100.00;98775.44;4340450;33;20050;-74
2022/07/27 04:48:07;;;;;;;7.03;1.40;;;;;;;17.44;100.00;98742.47;4340227;33;20048;-74
2022/07/27 04:50:41;;;;;;;2.60;1.20;;;;;;;17.67;100.00;98781.47;4337313;33;20363;-73
2022/07/27 04:53:09;;;;;;;2.25;1.25;;;;;;;17.56;100.00;98764.53;4340499;33;20051;-74
2022/07/27 04:55:36;;;;;;;2.85;1.67;;;;;;;17.56;100.00;98782.78;4352550;32;20016;-74
2022/07/27 04:58:03;;;;;;;7.68;1.58;;;;;;;17.62;100.00;98785.09;4376958;32;20390;-73
2022/07/27 05:00:29;;;;;;;5.72;1.83;;;;;;;17.60;100.00;98742.97;4383899;32;20030;-74
2022/07/27 05:02:55;;;;;;;2.78;1.62;;;;;;;17.52;100.00;98738.22;4384772;32;20035;-72
2022/07/27 05:05:22;;;;;;;2.20;0.85;;;;;;;17.82;100.00;98771.38;4425965;32;20058;-72
2022/07/27 05:07:48;;;;;;;5.35;1.50;;;;;;;17.78;100.00;98771.19;4432715;32;20030;-73
2022/07/27 05:10:15;;;;;;;5.97;1.10;;;;;;;17.74;100.00;98781.06;4407463;32;20429;-73
2022/07/27 05:12:41;;;;;;;4.57;1.15;;;;;;;17.84;100.00;98774.59;4405963;32;20052;-76
2022/07/27 05:15:09;;;;;;;1.23;0.88;;;;;;;17.54;100.00;98723.22;4405693;32;20038;-75
2022/07/27 05:17:35;;;;;;;4.87;1.37;;;;;;;17.67;100.00;98748.81;4408639;32;20423;-73
2022/07/27 05:20:03;;;;;;;17.30;1.40;;;;;;;17.59;100.00;98731.25;4405940;32;20056;-74
2022/07/27 05:22:29;;;;;;;7.50;1.20;;;;;;;17.97;100.00;98773.84;4406604;32;20034;-74
2022/07/27 05:24:56;;;;;;;7.47;0.93;;;;;;;17.94;100.00;98763.53;4406314;32;20082;-76
2022/07/27 05:27:22;;;;;;;8.65;1.00;;;;;;;18.37;100.00;98798.56;4406717;32;20061;-74
2022/07/27 05:29:49;;;;;;;2.75;0.88;;;;;;;18.09;100.00;98765.97;4383620;32;20055;-74
2022/07/27 05:32:15;;;;;;;2.97;0.88;;;;;;;18.25;100.00;98782.78;4383843;32;20414;-74
2022/07/27 05:34:42;;;;;;;4.68;1.08;;;;;;;18.18;100.00;98763.28;4384762;32;20068;-74
2022/07/27 05:37:09;;;;;;;3.47;0.80;;;;;;;18.27;100.00;98777.03;4381694;32;20456;-75
2022/07/27 05:39:35;;;;;;;3.00;0.75;;;;;;;18.03;100.00;98772.63;4384743;32;20031;-72
2022/07/27 05:42:03;;;;;;;3.72;0.75;;;;;;;18.19;100.00;98775.00;4384101;32;20057;-74
2022/07/27 05:44:30;;;;;;;4.12;1.00;;;;;;;18.29;100.00;98802.03;4384412;32;20499;-73
2022/07/27 05:46:56;;;;;;;4.40;0.98;;;;;;;18.45;100.00;98806.03;4383715;32;20091;-75
2022/07/27 05:49:22;;;;;;;5.60;1.92;;;;;;;18.36;100.00;98763.44;4383834;32;20072;-73
2022/07/27 05:51:49;;;;;;;6.07;1.00;;;;;;;18.58;100.00;98795.38;4384763;32;20065;-74
2022/07/27 05:54:16;;;;;;;3.47;1.02;;;;;;;18.54;100.00;98758.94;4384825;32;20023;-73
2022/07/27 05:56:42;;;;;;;8.77;1.60;;;;;;;18.59;100.00;98764.25;4384446;32;20425;-74
2022/07/27 05:59:09;;;;;;;5.47;1.20;;;;;;;18.77;100.00;98806.94;4383439;32;20060;-77
2022/07/27 06:01:36;;;;;;;1.50;0.90;;;;;;;18.30;100.00;98771.75;4416492;32;20064;-73
2022/07/27 06:04:10;;;;;;;3.05;1.50;;;;;;;18.31;100.00;98769.81;4432231;32;20031;-73
2022/07/27 06:09:22;;;;;;;1.70;1.12;;;;;;;18.46;100.00;98785.00;4429912;32;20072;-73
2022/07/27 06:11:48;;;;;;;2.65;0.77;;;;;;;18.86;100.00;98810.56;4399276;32;20031;-73
2022/07/27 06:14:14;;;;;;;2.33;1.20;;;;;;;18.65;100.00;98765.75;4399302;32;20027;-74
2022/07/27 06:16:41;;;;;;;3.40;1.20;;;;;;;18.63;100.00;98735.28;4375981;32;20027;-73
2022/07/27 06:19:07;;;;;;;1.95;1.05;;;;;;;19.13;100.00;98816.19;4372574;32;20070;-75
2022/07/27 06:21:34;;;;;;;5.65;1.20;;;;;;;19.03;100.00;98792.69;4375942;32;20065;-73
2022/07/27 06:24:00;;;;;;;9.10;1.23;;;;;;;19.48;100.00;98819.94;4377471;32;20065;-72
2022/07/27 06:26:27;;;;;;;2.87;1.70;;;;;;;19.40;100.00;98785.19;4375401;32;20074;-73
2022/07/27 06:28:57;;;;;;;9.75;1.50;;;;;;;19.59;100.00;98809.50;4352575;32;20053;-73
2022/07/27 06:31:25;;;;;;;4.35;1.58;;;;;;;19.41;100.00;98781.34;4351224;32;20920;-74
2022/07/27 06:33:53;;;;;;;5.20;1.12;;;;;;;19.36;100.00;98763.16;4354670;33;20044;-74
2022/07/27 06:36:20;;;;;;;5.68;1.12;;;;;;;19.54;100.00;98780.41;4338833;33;20036;-73
2022/07/27 06:38:47;;;;;;;8.82;1.77;;;;;;;19.47;100.00;98780.09;4338241;33;20070;-73
2022/07/27 06:41:13;;;;;;;2.08;0.93;;;;;;;19.46;100.00;98789.37;4335750;33;20065;-76
2022/07/27 06:43:40;;;;;;;4.15;1.00;;;;;;;19.41;100.00;98773.16;4318373;33;20056;-73
2022/07/27 06:46:11;;;;;;;4.05;1.50;;;;;;;19.51;100.00;98782.97;4315777;33;20041;-73
2022/07/27 06:48:40;;;;;;;2.60;1.00;;;;;;;19.53;100.00;98778.81;4327295;33;20452;-73
2022/07/27 06:51:08;;;;;;;3.60;1.02;;;;;;;19.57;100.00;98779.78;4330224;33;20080;-74
2022/07/27 06:53:34;;;;;;;5.05;1.30;;;;;;;19.24;100.00;98758.31;4330607;33;20045;-73
2022/07/27 06:56:02;;;;;;;1.30;0.82;;;;;;;19.54;100.00;98796.81;4332645;33;20066;-73
2022/07/27 06:58:33;;;;;;;8.35;1.30;;;;;;;19.20;100.00;98770.97;4330369;33;20485;-73
2022/07/27 07:01:01;;;;;;;4.75;1.45;;;;;;;19.40;100.00;98796.91;4313795;33;20088;-73
2022/07/27 07:03:28;;;;;;;2.03;0.90;;;;;;;19.42;100.00;98783.75;4315910;33;20280;-73
2022/07/27 07:05:55;;;;;;;4.07;1.02;;;;;;;19.28;100.00;98754.94;4315438;33;20036;-73
2022/07/27 07:08:21;;;;;;;2.60;1.08;;;;;;;19.53;100.00;98789.75;4317328;33;20071;-73
2022/07/27 07:10:49;;;;;;;8.48;1.87;;;;;;;19.33;100.00;98747.41;4315097;33;20075;-73
2022/07/27 07:13:16;;;;;;;3.75;0.93;;;;;;;19.56;100.00;98785.56;4316628;33;20032;-74
2022/07/27 07:15:43;;;;;;;7.25;2.80;;;;;;;19.20;100.00;98779.16;4329080;33;20072;-74
2022/07/27 07:18:10;;;;;;;11.05;1.25;;;;;;;19.51;100.00;98802.09;4331244;33;20427;-73
2022/07/27 07:20:38;;;;;;;5.00;1.65;;;;;;;19.36;100.00;98762.38;4348610;32;20083;-73
2022/07/27 07:23:04;;;;;;;8.43;1.10;;;;;;;19.69;100.00;98802.97;4346707;32;20068;-73
2022/07/27 07:25:32;;;;;;;3.35;1.35;;;;;;;19.78;100.00;98812.03;4347755;32;20494;-73
2022/07/27 07:28:00;;;;;;;3.87;1.12;;;;;;;19.64;100.00;98767.59;4348445;32;20047;-73
2022/07/27 07:30:26;;;;;;;10.48;1.25;;;;;;;19.45;100.00;98746.84;4348916;32;20025;-73
2022/07/27 07:32:53;;;;;;;9.73;1.15;;;;;;;19.68;100.00;98765.87;4378604;32;20468;-73
2022/07/27 07:35:20;;;;;;;4.82;1.67;;;;;;;19.35;100.00;98744.37;4385580;32;20069;-75
2022/07/27 07:37:47;;;;;;;2.53;0.90;;;;;;;19.73;100.00;98784.84;4384512;32;20174;-73
2022/07/27 07:40:13;;;;;;;6.47;1.42;;;;;;;19.52;100.00;98752.63;4386252;32;20439;-74
2022/07/27 07:42:53;;;;;;;4.43;1.17;;;;;;;20.10;100.00;98820.97;4394281;32;20035;-73
2022/07/27 07:45:21;;;;;;;5.00;1.62;;;;;;;19.96;100.00;98775.44;4430266;32;20026;-73
2022/07/27 07:47:49;;;;;;;4.43;0.90;;;;;;;20.14;100.00;98824.69;4433964;32;20390;-74
2022/07/27 07:50:15;;;;;;;1.77;0.88;;;;;;;20.09;100.00;98822.09;4434078;32;20382;-73
2022/07/27 07:52:42;;;;;;;5.07;1.08;;;;;;;19.95;100.00;98784.75;4430793;32;20072;-73
2022/07/27 07:55:10;;;;;;;6.07;1.05;;;;;;;20.31;100.00;98802.84;4378228;32;20426;-75
2022/07/27 07:57:36;;;;;;;2.58;1.75;;;;;;;20.72;100.00;98832.81;4377657;32;20079;-73
2022/07/27 08:00:05;;;;;;;3.75;2.20;;;;;;;20.68;100.00;98800.62;4377980;32;20082;-73
2022/07/27 08:02:48;;;;;;;4.87;1.33;;;;;;;20.89;100.00;98796.44;4375770;32;20108;-73
2022/07/27 08:05:14;;;;;;;4.32;1.75;;;;;;;21.10;100.00;98793.84;4376583;32;20354;-74
2022/07/27 08:07:42;;;;;;;6.20;1.92;;;;;;;20.75;100.00;98739.16;4379878;32;20047;-74
2022/07/27 08:10:10;;;;;;;4.87;1.55;;;;;;;21.41;100.00;98832.72;4377256;32;20043;-74
2022/07/27 08:12:39;;;;;;;4.12;1.33;;;;;;;21.60;100.00;98828.81;4379103;32;20124;-74
2022/07/27 08:15:07;;;;;;;4.30;1.30;;;;;;;21.46;100.00;98822.72;4375590;32;20034;-73
2022/07/27 08:17:33;;;;;;;5.05;1.50;;;;;;;21.17;100.00;98826.97;4362539;32;20133;-73
2022/07/27 08:20:00;;;;;;;10.18;1.15;;;;;;;21.25;100.00;98784.28;4363248;32;20053;-74
2022/07/27 08:22:27;;;;;;;3.45;1.50;;;;;;;21.07;100.00;98819.13;4363397;32;20039;-73
2022/07/27 08:24:53;;;;;;;2.97;0.85;;;;;;;21.58;100.00;98825.59;4361523;32;20040;-75
2022/07/27 08:27:19;;;;;;;9.57;1.70;;;;;;;21.80;100.00;98821.03;4361673;32;20032;-73
2022/07/27 08:29:46;;;;;;;3.67;1.30;;;;;;;21.53;100.00;98809.34;4361649;32;20058;-73
2022/07/27 08:32:12;;;;;;;1.30;1.20;;;;;;;21.29;100.00;98827.13;4362636;32;20039;-73
2022/07/27 08:34:39;;;;;;;6.22;2.08;;;;;;;21.65;100.00;98819.63;4363647;32;20087;-73
2022/07/27 08:37:05;;;;;;;4.60;1.10;;;;;;;21.86;100.00;98827.91;4360793;32;20107;-76
2022/07/27 08:39:32;;;;;;;3.00;1.30;;;;;;;21.79;100.00;98835.84;4362515;32;20047;-74
2022/07/27 08:42:03;;;;;;;5.35;1.08;;;;;;;21.52;100.00;98832.41;4362520;32;20054;-72
2022/07/27 08:44:30;;;;;;;3.58;0.95;;;;;;;21.35;100.00;98805.84;4360781;32;20073;-74
2022/07/27 08:46:56;;;;;;;1.95;0.98;;;;;;;21.07;100.00;98839.06;4362372;32;20035;-74
2022/07/27 08:49:23;;;;;;;6.78;1.33;;;;;;;20.95;100.00;98809.63;4361350;32;20355;-74
2022/07/27 08:51:50;;;;;;;2.20;1.10;;;;;;;21.46;100.00;98845.44;4360501;32;20730;-74
2022/07/27 08:54:16;;;;;;;6.62;0.93;;;;;;;21.15;100.00;98807.34;4366409;32;20027;-75
2022/07/27 08:56:43;;;;;;;1.10;1.00;;;;;;;21.37;100.00;98831.75;4400353;32;20023;-74
2022/07/27 08:59:09;;;;;;;14.13;1.17;;;;;;;21.41;100.00;98838.22;4424858;32;20116;-75
2022/07/27 09:01:41;;;;;;;7.03;1.10;;;;;;;21.51;100.00;98836.28;4431386;32;20045;-74
2022/07/27 09:04:08;;;;;;;2.05;1.02;;;;;;;21.56;100.00;98811.44;4432646;32;20052;-74
2022/07/27 09:06:42;;;;;;;5.07;0.80;;;;;;;21.68;100.00;98813.47;4432845;32;20042;-74
2022/07/27 09:09:10;;;;;;;3.67;1.00;;;;;;;21.80;100.00;98846.47;4432508;32;20034;-75
2022/07/27 09:11:37;;;;;;;1.00;0.95;;;;;;;21.60;100.00;98817.84;4382929;32;20101;-75
2022/07/27 09:14:06;;;;;;;2.45;1.27;;;;;;;21.77;100.00;98803.28;4384746;32;20077;-74
2022/07/27 09:16:34;;;;;;;7.62;1.10;;;;;;;21.94;100.00;98810.63;4384946;32;20027;-74
2022/07/27 09:19:05;;;;;;;5.97;1.23;;;;;;;21.97;100.00;98803.66;4338610;33;20056;-74
2022/07/27 09:21:33;;;;;;;3.35;0.90;;;;;;;21.96;100.00;98797.41;4338347;33;20036;-77
2022/07/27 09:24:11;;;;;;;3.45;0.90;;;;;;;21.91;100.00;98828.53;4340094;33;20069;-74
2022/07/27 09:26:38;;;;;;;2.30;0.95;;;;;;;21.95;100.00;98839.62;4339850;33;20112;-73
2022/07/27 09:29:14;;;;;;;1.37;0.90;;;;;;;21.89;100.00;98835.47;4339196;33;20378;-75
2022/07/27 09:31:43;;;;;;;2.47;1.00;;;;;;;21.74;100.00;98839.56;4339363;33;20121;-74
2022/07/27 09:34:11;;;;;;;10.27;1.37;;;;;;;21.72;100.00;98804.28;4339928;33;20019;-74
2022/07/27 09:36:55;;;;;;;11.90;1.23;;;;;;;21.81;100.00;98834.41;4323963;33;20115;-74
2022/07/27 09:39:25;;;;;;;2.58;1.05;;;;;;;21.63;100.00;98811.72;4322811;33;20079;-75
2022/07/27 09:41:55;;;;;;;4.18;1.02;;;;;;;21.83;100.00;98847.78;4327960;33;20192;-73
2022/07/27 09:44:41;;;;;;;4.00;1.20;;;;;;;21.99;100.00;98826.09;4351728;32;20027;-74
2022/07/27 09:47:25;;;;;;;3.55;1.10;;;;;;;22.04;100.00;98842.34;4353810;32;20111;-74
2022/07/27 09:49:53;;;;;;;3.35;1.42;;;;;;;22.09;100.00;98834.72;4372431;32;20026;-74
2022/07/27 09:52:29;;;;;;;4.57;1.23;;;;;;;22.19;100.00;98838.22;4397071;32;20035;-74
2022/07/27 09:55:04;;;;;;;1.30;1.10;;;;;;;22.37;100.00;98839.75;4396945;32;20048;-73
2022/07/27 09:57:53;;;;;;;1.73;1.30;;;;;;;22.01;100.00;98827.34;4384234;32;20448;-73
2022/07/27 10:00:21;;;;;;;4.82;2.83;;;;;;;22.40;100.00;98841.84;4335584;33;20161;-74
2022/07/27 10:02:51;;;;;;;3.05;1.75;;;;;;;22.78;100.00;98838.12;4339573;33;20502;-73
2022/07/27 10:05:20;;;;;;;2.05;1.30;;;;;;;22.97;98.85;98845.09;4338359;33;20046;-73
2022/07/27 10:07:47;;;;;;;2.35;0.98;;;;;;;22.89;98.45;98821.28;4346985;32;20344;-73
2022/07/27 10:10:14;;;;;;;3.20;2.00;;;;;;;23.14;99.96;98833.19;4352707;32;20450;-74
2022/07/27 10:12:44;;;;;;;1.73;0.88;;;;;;;23.24;97.25;98838.25;4354334;32;20075;-74
2022/07/27 10:15:11;;;;;;;1.65;1.55;;;;;;;22.97;99.56;98837.66;4354300;32;20458;-74
2022/07/27 10:17:41;;;;;;;1.70;1.15;;;;;;;23.11;99.87;98837.41;4354325;32;20087;-73
2022/07/27 10:20:10;;;;;;;8.32;1.25;;;;;;;22.95;97.70;98837.19;4353333;32;20075;-76
2022/07/27 10:22:55;;;;;;;4.20;1.70;;;;;;;22.60;99.96;98792.78;4353645;32;20048;-72
2022/07/27 10:25:23;;;;;;;1.95;1.27;;;;;;;22.55;100.00;98842.37;4352499;32;20430;-74
2022/07/27 10:28:15;;;;;;;3.62;1.95;;;;;;;22.28;100.00;98814.28;4354455;32;20408;-72
2022/07/27 10:30:42;;;;;;;5.82;1.58;;;;;;;22.38;100.00;98849.56;4362924;32;20091;-74
2022/07/27 10:33:46;;;;;;;3.05;1.92;;;;;;;22.05;100.00;98803.63;4374517;32;20394;-74
2022/07/27 10:36:15;;;;;;;2.87;1.50;;;;;;;21.87;100.00;98821.28;4377053;32;20036;-72
2022/07/27 10:38:50;;;;;;;1.33;1.23;;;;;;;21.85;100.00;98826.31;4377314;32;20453;-72
2022/07/27 10:41:21;;;;;;;2.28;1.20;;;;;;;21.96;100.00;98844.00;4374693;32;20053;-74
2022/07/27 10:43:49;;;;;;;4.53;1.20;;;;;;;21.75;100.00;98820.06;4331363;33;20302;-73
2022/07/27 10:46:20;;;;;;;2.75;1.25;;;;;;;21.95;100.00;98834.16;4329707;33;20099;-74
2022/07/27 10:48:46;;;;;;;2.50;1.10;;;;;;;21.92;100.00;98818.38;4329189;33;20032;-73
2022/07/27 10:51:15;;;;;;;2.30;1.20;;;;;;;21.73;100.00;98818.78;4330381;33;20110;-74
2022/07/27 10:53:42;;;;;;;1.80;1.10;;;;;;;21.83;100.00;98820.37;4332326;33;21552;-74
2022/07/27 10:56:09;;;;;;;3.97;1.33;;;;;;;21.92;100.00;98840.28;4334430;33;20045;-74
2022/07/27 10:58:35;;;;;;;6.93;1.10;;;;;;;21.77;100.00;98845.19;4345036;32;20471;-73
2022/07/27 11:01:06;;;;;;;1.70;1.00;;;;;;;21.62;100.00;98828.50;4365297;32;20069;-74
2022/07/27 11:03:35;;;;;;;1.40;0.98;;;;;;;21.76;100.00;98843.59;4386334;32;20071;-73
2022/07/27 11:06:18;;;;;;;6.72;1.20;;;;;;;21.90;100.00;98857.06;4385309;32;20419;-73
2022/07/27 11:08:46;;;;;;;4.28;1.00;;;;;;;21.75;100.00;98831.03;4385232;32;20061;-76
2022/07/27 11:11:15;;;;;;;3.42;1.30;;;;;;;22.03;100.00;98852.47;4371438;32;20098;-73
2022/07/27 11:13:41;;;;;;;10.80;1.65;;;;;;;22.43;100.00;98843.09;4371832;32;20452;-74
2022/07/27 11:16:12;;;;;;;3.35;1.75;;;;;;;22.75;100.00;98849.00;4400034;32;20104;-74
2022/07/27 11:18:41;;;;;;;2.20;1.20;;;;;;;22.87;100.00;98849.06;4399431;32;20071;-76
2022/07/27 11:21:19;;;;;;;2.47;1.30;;;;;;;22.53;100.00;98830.91;4401032;32;20569;-73
2022/07/27 11:23:52;;;;;;;4.35;1.30;;;;;;;22.54;100.00;98827.06;4401482;32;20038;-73
2022/07/27 11:26:21;;;;;;;2.10;1.10;;;;;;;22.64;100.00;98838.44;4385885;32;20035;-76
2022/07/27 11:28:49;;;;;;;2.17;1.35;;;;;;;23.03;100.00;98857.47;4385300;32;20507;-74
2022/07/27 11:31:15;;;;;;;2.37;1.25;;;;;;;22.92;100.00;98845.31;4385756;32;20019;-74
2022/07/27 11:34:07;;;;;;;3.53;1.25;;;;;;;22.64;100.00;98823.88;4386187;32;20085;-74